Time;durP1;ratioP1;P1;durP2;ratioP2;P2;SDS_P1;SDS_P2;PMS_P1;PMS_P2;Temp;Humidity;BMP_temperature;BMP_pressure;BME280_temperature;BME280_humidity;BME280_pressure;Samples;Min_cycle;Max_cycle;Signal;HPM_P1;HPM_P2
2023/11/14 00:00:53;;;;;;;0.43;0.20;;;13.10;99.90;;;;;;5040039;28;20120;-65
2023/11/14 00:03:28;;;;;;;0.20;0.20;;;13.10;99.90;;;;;;5044696;28;20056;-64
2023/11/14 00:05:55;;;;;;;0.68;0.30;;;13.00;99.90;;;;;;5040540;28;20037;-65
2023/11/14 00:08:27;;;;;;;0.43;0.22;;;13.00;99.90;;;;;;5045585;28;20417;-64
2023/11/14 00:10:59;;;;;;;0.40;0.30;;;13.00;99.90;;;;;;5045019;28;21013;-64
2023/11/14 00:13:32;;;;;;;0.38;0.38;;;13.00;99.90;;;;;;5040673;28;20049;-65
2023/11/14 00:16:04;;;;;;;0.75;0.30;;;13.00;99.90;;;;;;5043161;28;20033;-64
2023/11/14 00:18:36;;;;;;;0.63;0.20;;;13.00;99.90;;;;;;5038907;28;20051;-65
2023/11/14 00:21:08;;;;;;;0.65;0.40;;;13.00;99.90;;;;;;5041962;28;20038;-65
2023/11/14 00:23:35;;;;;;;1.17;0.60;;;13.00;99.90;;;;;;5041295;28;20045;-65
2023/11/14 00:26:06;;;;;;;4.78;2.35;;;13.00;99.90;;;;;;5038431;28;20390;-65
2023/11/14 00:28:43;;;;;;;4.25;1.23;;;13.00;99.90;;;;;;5033875;28;20061;-64
2023/11/14 00:31:15;;;;;;;1.73;0.80;;;13.00;99.90;;;;;;5047695;28;20037;-65
2023/11/14 00:33:42;;;;;;;3.53;1.00;;;12.80;99.90;;;;;;5040871;28;20124;-65
2023/11/14 00:36:14;;;;;;;2.38;0.70;;;12.50;99.90;;;;;;5037627;28;20060;-67
2023/11/14 00:38:46;;;;;;;1.65;0.47;;;12.30;99.90;;;;;;5031118;28;20532;-65
2023/11/14 00:41:18;;;;;;;2.65;0.70;;;12.10;99.90;;;;;;5037342;28;20049;-65
2023/11/14 00:43:49;;;;;;;1.92;0.73;;;11.90;99.90;;;;;;5044850;28;20565;-64
2023/11/14 00:46:18;;;;;;;4.55;1.40;;;11.60;99.90;;;;;;5041253;28;20041;-64
2023/11/14 00:48:50;;;;;;;3.50;0.60;;;11.50;99.90;;;;;;5037016;28;20056;-64
2023/11/14 00:51:21;;;;;;;1.60;0.60;;;11.40;99.90;;;;;;5037022;28;20098;-64
2023/11/14 00:53:56;;;;;;;1.35;0.45;;;11.30;99.90;;;;;;5041071;28;20113;-64
2023/11/14 00:56:28;;;;;;;6.40;1.40;;;11.20;99.90;;;;;;5037954;28;20033;-64
2023/11/14 00:59:01;;;;;;;2.25;0.60;;;11.20;99.90;;;;;;5040813;28;20042;-64
2023/11/14 01:01:33;;;;;;;1.80;1.08;;;11.10;99.90;;;;;;5046394;28;20144;-64
2023/11/14 01:04:00;;;;;;;5.07;0.90;;;11.10;99.90;;;;;;5032883;28;20801;-65
2023/11/14 01:06:32;;;;;;;2.88;1.05;;;11.10;99.90;;;;;;5038955;28;20068;-69
2023/11/14 01:09:06;;;;;;;;;;;11.00;99.90;;;;;;5055444;28;20624;-64
2023/11/14 01:11:38;;;;;;;6.10;0.90;;;11.00;99.90;;;;;;5017737;28;20353;-65
2023/11/14 01:14:04;;;;;;;3.47;0.85;;;11.00;99.90;;;;;;5037607;28;20120;-65
2023/11/14 01:16:36;;;;;;;4.90;1.10;;;10.90;99.90;;;;;;5029726;28;20502;-65
2023/11/14 01:19:08;;;;;;;6.72;1.85;;;10.90;99.90;;;;;;5037235;28;20045;-65
2023/11/14 01:21:36;;;;;;;5.57;1.42;;;10.90;99.90;;;;;;5036201;28;20041;-65
2023/11/14 01:24:08;;;;;;;2.47;1.02;;;10.80;99.90;;;;;;5045137;28;20509;-65
2023/11/14 01:26:41;;;;;;;4.67;1.20;;;10.80;99.90;;;;;;5037513;28;20047;-65
2023/11/14 01:29:08;;;;;;;4.55;1.00;;;10.80;99.90;;;;;;5034418;28;20276;-64
2023/11/14 01:31:35;;;;;;;7.30;1.38;;;10.70;99.90;;;;;;5042005;28;20133;-64
2023/11/14 01:34:07;;;;;;;3.92;1.27;;;10.80;99.90;;;;;;5045231;28;20049;-64
2023/11/14 01:36:39;;;;;;;3.92;1.15;;;10.70;99.90;;;;;;5037824;28;20049;-64
2023/11/14 01:39:06;;;;;;;4.90;1.10;;;10.70;99.90;;;;;;5039950;28;20048;-64
2023/11/14 01:41:38;;;;;;;11.98;1.63;;;10.70;99.90;;;;;;5039212;28;20413;-64
2023/11/14 01:44:10;;;;;;;8.20;1.30;;;10.60;99.90;;;;;;5042926;28;20053;-65
2023/11/14 01:46:42;;;;;;;5.50;1.17;;;10.50;99.90;;;;;;5047101;28;20080;-65
2023/11/14 01:49:15;;;;;;;4.70;0.98;;;10.40;99.90;;;;;;5039168;28;20065;-65
2023/11/14 01:51:47;;;;;;;5.75;1.63;;;10.40;99.90;;;;;;5036546;28;20037;-64
2023/11/14 01:54:15;;;;;;;6.13;1.85;;;10.40;99.90;;;;;;5034565;28;20047;-64
2023/11/14 01:56:43;;;;;;;8.27;2.25;;;10.40;99.90;;;;;;5042109;28;20037;-64
2023/11/14 01:59:15;;;;;;;7.13;1.85;;;10.40;99.90;;;;;;5037645;28;20056;-65
2023/11/14 02:01:47;;;;;;;5.65;1.60;;;10.30;99.90;;;;;;5020045;28;20052;-65
2023/11/14 02:04:21;;;;;;;4.82;1.10;;;10.20;99.90;;;;;;5037083;28;20049;-65
2023/11/14 02:06:54;;;;;;;7.68;1.55;;;10.10;99.90;;;;;;5055073;28;20170;-65
2023/11/14 02:09:27;;;;;;;6.15;1.00;;;10.10;99.90;;;;;;5038954;28;20045;-65
2023/11/14 02:11:59;;;;;;;8.03;1.77;;;10.10;99.90;;;;;;5040474;28;20033;-65
2023/11/14 02:14:31;;;;;;;6.57;1.30;;;10.10;99.90;;;;;;5040365;28;20107;-65
2023/11/14 02:17:03;;;;;;;4.07;1.30;;;10.00;99.90;;;;;;5037326;28;20037;-65
2023/11/14 02:19:37;;;;;;;5.85;1.30;;;10.10;99.90;;;;;;5040110;28;20799;-65
2023/11/14 02:22:10;;;;;;;4.78;1.55;;;10.00;99.90;;;;;;5038434;28;20099;-65
2023/11/14 02:24:53;;;;;;;6.40;1.47;;;10.00;99.90;;;;;;5049018;28;20037;-65
2023/11/14 02:27:20;;;;;;;9.70;2.33;;;10.10;99.90;;;;;;5036210;28;20094;-65
2023/11/14 02:29:55;;;;;;;6.30;1.27;;;10.10;99.90;;;;;;5046565;28;20041;-65
2023/11/14 02:32:30;;;;;;;4.95;1.50;;;10.10;99.90;;;;;;5039381;28;20124;-65
2023/11/14 02:35:04;;;;;;;6.63;1.50;;;10.10;99.90;;;;;;5042075;28;20506;-64
2023/11/14 02:37:36;;;;;;;5.78;1.15;;;10.10;99.90;;;;;;5038938;28;20406;-64
2023/11/14 02:40:08;;;;;;;5.78;1.55;;;10.00;99.90;;;;;;5038255;28;20038;-64
2023/11/14 02:42:43;;;;;;;3.70;1.00;;;10.00;99.90;;;;;;5039197;28;20069;-64
2023/11/14 02:45:15;;;;;;;4.35;1.30;;;10.00;99.90;;;;;;5023886;28;20049;-65
2023/11/14 02:47:48;;;;;;;4.10;1.23;;;10.00;99.90;;;;;;5039573;28;20134;-64
2023/11/14 02:50:39;;;;;;;5.18;1.40;;;10.00;99.90;;;;;;5038318;28;20077;-64
2023/11/14 02:53:11;;;;;;;5.25;1.58;;;10.10;99.90;;;;;;5036344;28;20041;-65
2023/11/14 02:55:44;;;;;;;5.55;1.52;;;10.10;99.90;;;;;;5040278;28;20049;-65
2023/11/14 02:58:17;;;;;;;5.80;1.50;;;10.10;99.90;;;;;;5043445;28;20046;-65
2023/11/14 03:00:49;;;;;;;4.82;1.92;;;10.10;99.90;;;;;;5036846;28;20299;-64
2023/11/14 03:03:21;;;;;;;5.72;1.38;;;10.10;99.90;;;;;;5034793;28;20574;-65
2023/11/14 03:05:52;;;;;;;4.63;1.48;;;10.10;99.90;;;;;;5044203;28;20068;-64
2023/11/14 03:08:24;;;;;;;5.50;1.15;;;10.10;99.90;;;;;;5023590;28;20037;-64
2023/11/14 03:10:56;;;;;;;3.28;1.30;;;10.10;99.90;;;;;;5043237;28;20049;-64
2023/11/14 03:13:28;;;;;;;5.63;1.38;;;10.00;99.90;;;;;;5039087;28;20045;-64
2023/11/14 03:16:00;;;;;;;4.07;1.42;;;10.00;99.90;;;;;;5044001;28;20043;-64
2023/11/14 03:18:33;;;;;;;5.70;1.50;;;10.10;99.90;;;;;;5041075;28;20037;-65
2023/11/14 03:21:05;;;;;;;4.53;1.30;;;10.10;99.90;;;;;;5040428;28;20176;-64
2023/11/14 03:23:32;;;;;;;5.32;1.75;;;10.10;99.90;;;;;;5037516;28;20051;-64
2023/11/14 03:25:59;;;;;;;4.75;1.25;;;10.10;99.90;;;;;;5039836;28;20472;-64
2023/11/14 03:28:31;;;;;;;4.35;1.17;;;10.10;99.90;;;;;;5035022;28;20076;-64
2023/11/14 03:31:03;;;;;;;3.35;0.93;;;10.00;99.90;;;;;;5047823;28;20052;-64
2023/11/14 03:33:34;;;;;;;2.92;1.20;;;10.10;99.90;;;;;;5035040;28;20049;-64
2023/11/14 03:36:07;;;;;;;8.85;1.25;;;10.00;99.90;;;;;;5039702;28;20041;-64
2023/11/14 03:38:38;;;;;;;3.88;1.20;;;10.00;99.90;;;;;;5053743;28;20041;-64
2023/11/14 03:41:11;;;;;;;4.07;0.95;;;10.00;99.90;;;;;;5042657;28;20585;-64
2023/11/14 03:43:43;;;;;;;5.22;1.20;;;10.00;99.90;;;;;;5042713;28;20608;-64
2023/11/14 03:46:15;;;;;;;2.50;1.10;;;10.00;99.90;;;;;;5036544;28;20604;-65
2023/11/14 03:48:47;;;;;;;4.55;0.90;;;10.00;99.90;;;;;;5036237;28;20045;-65
2023/11/14 03:51:20;;;;;;;3.08;1.33;;;10.00;99.90;;;;;;5037503;28;20045;-64
2023/11/14 03:53:53;;;;;;;5.03;1.05;;;10.00;99.90;;;;;;5039808;28;20128;-65
2023/11/14 03:56:25;;;;;;;4.72;1.10;;;10.10;99.90;;;;;;5039346;28;20041;-64
2023/11/14 03:58:56;;;;;;;4.70;1.20;;;10.10;99.90;;;;;;5023147;28;20412;-65
2023/11/14 04:01:28;;;;;;;4.20;1.23;;;10.10;99.90;;;;;;5033997;28;20051;-64
2023/11/14 04:04:00;;;;;;;4.15;1.33;;;10.10;99.90;;;;;;5034906;28;20049;-64
2023/11/14 04:06:32;;;;;;;5.53;2.35;;;10.10;99.90;;;;;;5034504;28;20591;-64
2023/11/14 04:09:05;;;;;;;6.40;1.45;;;10.10;99.90;;;;;;5035054;28;20064;-64
2023/11/14 04:11:47;;;;;;;3.27;1.37;;;10.10;99.90;;;;;;5038430;28;20051;-64
2023/11/14 04:14:14;;;;;;;2.58;1.00;;;10.10;99.90;;;;;;5041607;28;20037;-64
2023/11/14 04:16:47;;;;;;;2.83;1.10;;;10.10;99.90;;;;;;5040645;28;20077;-64
2023/11/14 04:19:19;;;;;;;4.20;1.35;;;10.10;99.90;;;;;;5020941;28;20045;-64
2023/11/14 04:21:51;;;;;;;5.93;1.25;;;10.10;99.90;;;;;;5043750;28;20123;-64
2023/11/14 04:24:23;;;;;;;5.80;1.75;;;10.00;99.90;;;;;;5034423;28;20120;-64
2023/11/14 04:26:59;;;;;;;3.92;1.30;;;10.00;99.90;;;;;;5035021;28;20055;-65
2023/11/14 04:29:31;;;;;;;4.25;1.20;;;10.00;99.90;;;;;;5036549;28;20132;-64
2023/11/14 04:32:03;;;;;;;3.80;1.58;;;10.00;99.90;;;;;;5044869;28;20037;-64
2023/11/14 04:34:30;;;;;;;2.78;1.42;;;10.00;99.90;;;;;;5031964;28;20034;-64
2023/11/14 04:37:02;;;;;;;2.85;1.20;;;10.00;99.90;;;;;;5042373;28;20041;-64
2023/11/14 04:39:34;;;;;;;7.95;1.17;;;10.00;99.90;;;;;;5038417;28;20045;-64
2023/11/14 04:42:06;;;;;;;3.67;1.20;;;10.10;99.90;;;;;;5037600;28;20044;-64
2023/11/14 04:44:37;;;;;;;3.05;1.25;;;10.10;99.90;;;;;;5035636;28;20057;-64
2023/11/14 04:47:10;;;;;;;3.03;1.25;;;10.00;99.90;;;;;;5039299;28;20059;-64
2023/11/14 04:49:44;;;;;;;;;;;10.10;99.90;;;;;;5036252;28;20045;-64
2023/11/14 04:52:11;;;;;;;3.47;1.00;;;10.10;99.90;;;;;;5039524;28;19921;-64
2023/11/14 04:54:44;;;;;;;3.97;1.20;;;10.10;99.90;;;;;;5039975;28;20132;-64
2023/11/14 04:57:11;;;;;;;2.45;1.00;;;10.10;99.90;;;;;;5038167;28;20037;-64
2023/11/14 04:59:43;;;;;;;4.32;1.30;;;10.10;99.90;;;;;;5031240;28;20071;-64
2023/11/14 05:02:10;;;;;;;2.75;1.05;;;10.10;99.90;;;;;;5033729;28;20041;-64
2023/11/14 05:04:42;;;;;;;2.67;1.45;;;10.10;99.90;;;;;;5045325;28;20189;-65
2023/11/14 05:07:14;;;;;;;4.45;1.60;;;10.10;99.90;;;;;;5026463;28;20053;-65
2023/11/14 05:09:46;;;;;;;6.30;2.20;;;10.10;99.90;;;;;;5040133;28;20500;-64
2023/11/14 05:12:18;;;;;;;4.43;1.30;;;10.10;99.90;;;;;;5039401;28;20065;-65
2023/11/14 05:14:50;;;;;;;3.53;1.38;;;10.10;99.90;;;;;;5037313;28;20120;-65
2023/11/14 05:17:22;;;;;;;3.22;1.27;;;10.10;99.90;;;;;;5041465;28;20045;-65
2023/11/14 05:19:50;;;;;;;4.05;2.55;;;10.10;99.90;;;;;;5045697;28;20037;-65
2023/11/14 05:22:22;;;;;;;5.93;1.92;;;10.10;99.90;;;;;;5040966;28;20041;-65
2023/11/14 05:24:54;;;;;;;2.33;1.20;;;10.10;99.90;;;;;;5040708;28;20041;-65
2023/11/14 05:27:21;;;;;;;5.20;1.60;;;10.10;99.90;;;;;;5040340;28;20045;-65
2023/11/14 05:29:53;;;;;;;5.85;1.58;;;10.10;99.90;;;;;;5047295;28;20048;-65
2023/11/14 05:32:20;;;;;;;1.88;1.10;;;10.00;99.90;;;;;;5037960;28;20541;-65
2023/11/14 05:34:52;;;;;;;1.73;0.95;;;10.00;99.90;;;;;;5024702;28;20049;-65
2023/11/14 05:37:19;;;;;;;2.17;0.93;;;10.00;99.90;;;;;;5046524;28;20116;-65
2023/11/14 05:39:45;;;;;;;1.95;0.90;;;10.00;99.90;;;;;;5043480;28;20037;-67
2023/11/14 05:42:12;;;;;;;1.98;0.85;;;10.00;99.90;;;;;;5039495;28;20045;-67
2023/11/14 05:44:39;;;;;;;1.08;0.70;;;10.00;99.90;;;;;;5043490;28;20132;-67
2023/11/14 05:47:11;;;;;;;1.67;0.70;;;10.00;99.90;;;;;;5038829;28;20041;-65
2023/11/14 05:49:43;;;;;;;4.35;0.90;;;10.00;99.90;;;;;;5038952;28;20413;-65
2023/11/14 05:52:15;;;;;;;1.38;0.60;;;10.00;99.90;;;;;;5038644;28;20052;-65
2023/11/14 05:54:47;;;;;;;3.42;0.88;;;10.00;99.90;;;;;;5036415;28;20049;-65
2023/11/14 05:57:14;;;;;;;1.40;0.70;;;9.90;99.90;;;;;;5043698;28;20581;-65
2023/11/14 05:59:47;;;;;;;2.85;0.60;;;10.00;99.90;;;;;;5038792;28;20041;-66
2023/11/14 06:02:19;;;;;;;4.38;0.85;;;9.90;99.90;;;;;;5038949;28;20620;-65
2023/11/14 06:04:51;;;;;;;2.25;1.25;;;9.90;99.90;;;;;;5037093;28;20097;-65
2023/11/14 06:07:18;;;;;;;7.35;2.70;;;9.90;99.90;;;;;;5040548;28;20049;-65
2023/11/14 06:09:50;;;;;;;1.23;0.70;;;9.90;99.90;;;;;;5036523;28;20049;-66
2023/11/14 06:12:22;;;;;;;3.63;1.10;;;9.90;99.90;;;;;;5041017;28;20521;-65
2023/11/14 06:14:49;;;;;;;1.92;0.90;;;9.90;99.90;;;;;;5046656;28;20048;-66
2023/11/14 06:17:21;;;;;;;3.00;0.77;;;9.90;99.90;;;;;;5024962;28;20056;-66
2023/11/14 06:19:48;;;;;;;1.58;0.75;;;9.90;99.90;;;;;;5038325;28;20106;-65
2023/11/14 06:22:20;;;;;;;2.55;1.45;;;9.90;99.90;;;;;;5036533;28;20052;-65
2023/11/14 06:24:52;;;;;;;2.17;0.80;;;9.90;99.90;;;;;;5038965;28;20039;-66
2023/11/14 06:27:24;;;;;;;2.53;0.60;;;9.90;99.90;;;;;;5038743;28;20158;-65
2023/11/14 06:29:56;;;;;;;2.30;0.60;;;9.90;99.90;;;;;;5040603;28;20510;-66
2023/11/14 06:32:28;;;;;;;1.40;0.70;;;9.90;99.90;;;;;;5036643;28;20041;-66
2023/11/14 06:35:00;;;;;;;1.75;0.68;;;9.90;99.90;;;;;;5039114;28;20045;-65
2023/11/14 06:37:35;;;;;;;1.90;0.70;;;9.80;99.90;;;;;;5040039;28;20041;-65
2023/11/14 06:40:08;;;;;;;1.48;0.55;;;9.80;99.90;;;;;;5049514;28;20045;-65
2023/11/14 06:42:40;;;;;;;3.55;0.73;;;9.80;99.90;;;;;;5040783;28;20037;-65
2023/11/14 06:45:12;;;;;;;2.58;0.70;;;9.80;99.90;;;;;;5039378;28;20064;-65
2023/11/14 06:47:43;;;;;;;2.70;1.02;;;9.80;99.90;;;;;;5043170;28;20506;-65
2023/11/14 06:50:11;;;;;;;3.00;0.88;;;9.80;99.90;;;;;;5038598;28;20061;-65
2023/11/14 06:52:38;;;;;;;2.25;0.80;;;9.70;99.90;;;;;;5039312;28;20033;-65
2023/11/14 06:55:05;;;;;;;1.55;0.77;;;9.70;99.90;;;;;;5037778;28;20048;-65
2023/11/14 06:57:37;;;;;;;1.47;0.60;;;9.70;99.90;;;;;;5035371;28;20055;-65
2023/11/14 07:00:10;;;;;;;1.73;0.75;;;9.80;99.90;;;;;;5037952;28;20128;-65
2023/11/14 07:02:45;;;;;;;2.58;0.65;;;9.80;99.90;;;;;;5036271;28;20048;-65
2023/11/14 07:05:18;;;;;;;3.17;0.90;;;9.80;99.90;;;;;;5038952;28;20393;-65
2023/11/14 07:07:50;;;;;;;2.53;0.80;;;9.80;99.90;;;;;;5034933;28;20517;-65
2023/11/14 07:10:23;;;;;;;1.85;0.55;;;9.80;99.90;;;;;;5036772;28;20044;-65
2023/11/14 07:12:55;;;;;;;4.05;0.88;;;9.90;99.90;;;;;;5037101;28;20041;-65
2023/11/14 07:15:27;;;;;;;2.22;0.52;;;9.90;99.90;;;;;;5033787;28;20129;-65
2023/11/14 07:18:01;;;;;;;2.38;0.70;;;9.90;99.90;;;;;;5044510;28;20041;-66
2023/11/14 07:20:34;;;;;;;1.33;0.75;;;9.90;99.90;;;;;;5039356;28;20037;-66
2023/11/14 07:23:02;;;;;;;4.15;0.90;;;9.90;99.90;;;;;;5042336;28;20460;-65
2023/11/14 07:25:31;;;;;;;2.63;0.70;;;9.90;99.90;;;;;;5037239;28;20065;-66
2023/11/14 07:28:04;;;;;;;2.45;0.75;;;9.90;99.90;;;;;;5038569;28;20042;-66
2023/11/14 07:30:33;;;;;;;5.65;0.75;;;9.90;99.90;;;;;;5035396;28;20046;-66
2023/11/14 07:33:01;;;;;;;3.97;0.88;;;9.90;99.90;;;;;;5034813;28;20127;-65
2023/11/14 07:35:37;;;;;;;1.95;0.70;;;9.90;99.90;;;;;;5039931;28;20059;-66
2023/11/14 07:38:09;;;;;;;3.72;1.00;;;9.90;99.90;;;;;;5039957;28;20045;-66
2023/11/14 07:40:36;;;;;;;1.50;0.70;;;9.80;99.90;;;;;;5035751;28;20049;-66
2023/11/14 07:43:09;;;;;;;1.83;0.80;;;9.70;99.90;;;;;;5032375;28;20053;-65
2023/11/14 07:45:42;;;;;;;;;;;9.70;99.90;;;;;;5039661;28;20484;-66
2023/11/14 07:48:09;;;;;;;1.60;0.75;;;9.70;99.90;;;;;;5037342;28;19928;-66
2023/11/14 07:50:41;;;;;;;1.30;0.57;;;9.70;99.90;;;;;;5037964;28;20043;-66
2023/11/14 07:53:13;;;;;;;0.75;0.43;;;9.70;99.90;;;;;;5039557;28;20786;-66
2023/11/14 07:55:45;;;;;;;1.40;0.40;;;9.70;99.90;;;;;;5035234;28;20103;-66
2023/11/14 07:58:12;;;;;;;2.72;0.60;;;9.70;99.90;;;;;;5035483;28;20041;-66
2023/11/14 08:00:44;;;;;;;1.58;0.55;;;9.80;99.90;;;;;;5036585;28;20523;-66
2023/11/14 08:03:12;;;;;;;1.30;0.50;;;9.80;99.90;;;;;;5043357;28;20118;-66
2023/11/14 08:05:43;;;;;;;1.83;0.40;;;9.80;99.90;;;;;;5033828;28;20049;-66
2023/11/14 08:08:11;;;;;;;1.20;0.40;;;9.90;99.90;;;;;;5033081;28;20136;-66
2023/11/14 08:10:43;;;;;;;1.52;0.40;;;9.90;99.90;;;;;;5035951;28;20060;-66
2023/11/14 08:13:20;;;;;;;1.40;0.47;;;9.90;99.90;;;;;;5039044;28;20043;-66
2023/11/14 08:15:53;;;;;;;4.22;0.55;;;9.90;99.90;;;;;;5032996;28;20045;-66
2023/11/14 08:18:25;;;;;;;2.55;0.50;;;10.00;99.90;;;;;;5037813;28;20042;-66
2023/11/14 08:20:56;;;;;;;0.95;0.45;;;10.00;99.90;;;;;;5036305;28;20425;-66
2023/11/14 08:23:28;;;;;;;1.55;0.47;;;10.10;99.90;;;;;;5035871;28;20043;-66
2023/11/14 08:25:55;;;;;;;1.70;0.50;;;10.10;99.90;;;;;;5035831;28;20041;-66
2023/11/14 08:28:27;;;;;;;1.50;0.60;;;10.10;99.90;;;;;;5039818;28;20501;-66
2023/11/14 08:30:54;;;;;;;1.40;0.60;;;10.10;99.90;;;;;;5035113;28;20048;-66
2023/11/14 08:33:21;;;;;;;0.82;0.40;;;10.10;99.90;;;;;;5036952;28;20037;-66
2023/11/14 08:35:53;;;;;;;3.05;0.57;;;10.10;99.90;;;;;;5036312;28;20033;-66
2023/11/14 08:38:27;;;;;;;1.25;0.57;;;10.10;99.90;;;;;;5039099;28;20053;-66
2023/11/14 08:41:00;;;;;;;1.42;0.90;;;10.10;99.90;;;;;;5039786;28;20421;-66
2023/11/14 08:43:27;;;;;;;0.98;0.65;;;10.10;99.90;;;;;;5036794;28;20036;-66
2023/11/14 08:46:00;;;;;;;1.63;0.65;;;10.20;99.90;;;;;;5040348;28;20132;-66
2023/11/14 08:48:27;;;;;;;0.88;0.60;;;10.10;99.90;;;;;;5035296;28;20041;-66
2023/11/14 08:50:59;;;;;;;0.82;0.52;;;10.10;99.90;;;;;;5037216;28;20037;-66
2023/11/14 08:53:31;;;;;;;0.90;0.40;;;10.10;99.90;;;;;;5039462;28;20044;-66
2023/11/14 08:56:03;;;;;;;1.30;0.70;;;10.00;99.90;;;;;;5036386;28;20094;-66
2023/11/14 08:58:36;;;;;;;2.15;0.40;;;9.90;99.90;;;;;;5032952;28;20052;-66
2023/11/14 09:01:04;;;;;;;1.02;0.43;;;9.90;99.90;;;;;;5035500;28;20095;-66
2023/11/14 09:03:36;;;;;;;1.50;0.80;;;9.70;99.90;;;;;;5039369;28;20124;-66
2023/11/14 09:06:04;;;;;;;4.72;0.52;;;9.70;99.90;;;;;;5018439;28;20038;-66
2023/11/14 09:08:31;;;;;;;3.20;0.68;;;9.70;99.90;;;;;;5043873;28;20070;-66
2023/11/14 09:11:04;;;;;;;2.05;0.70;;;9.60;99.90;;;;;;5033438;28;20408;-66
2023/11/14 09:13:35;;;;;;;1.50;0.60;;;9.60;99.90;;;;;;5038435;28;20037;-66
2023/11/14 09:16:09;;;;;;;1.63;0.50;;;9.50;99.90;;;;;;5031203;28;20868;-66
2023/11/14 09:18:41;;;;;;;0.90;0.68;;;9.50;99.90;;;;;;5038704;28;20034;-66
2023/11/14 09:21:13;;;;;;;1.90;0.90;;;9.40;99.90;;;;;;5036359;28;20064;-66
2023/11/14 09:23:45;;;;;;;2.17;0.60;;;9.40;99.90;;;;;;5017876;28;20099;-66
2023/11/14 09:26:17;;;;;;;2.67;1.00;;;9.40;99.90;;;;;;5037687;28;20041;-66
2023/11/14 09:28:49;;;;;;;2.40;0.65;;;9.40;99.90;;;;;;5033990;28;20041;-66
2023/11/14 09:31:21;;;;;;;1.42;0.70;;;9.40;99.90;;;;;;5039921;28;20123;-66
2023/11/14 09:33:47;;;;;;;3.63;1.00;;;9.30;99.90;;;;;;5039167;28;20030;-66
2023/11/14 09:36:19;;;;;;;2.85;0.50;;;9.30;99.90;;;;;;5040322;28;21115;-66
2023/11/14 09:38:51;;;;;;;4.55;0.90;;;9.30;99.90;;;;;;5042501;28;20038;-66
2023/11/14 09:41:19;;;;;;;2.83;0.75;;;9.30;99.90;;;;;;5032044;28;20052;-66
2023/11/14 09:43:46;;;;;;;4.35;0.80;;;9.30;99.90;;;;;;5036163;28;20125;-66
2023/11/14 09:46:13;;;;;;;2.25;0.43;;;9.30;99.90;;;;;;5041451;28;20518;-66
2023/11/14 09:48:45;;;;;;;1.40;0.43;;;9.40;99.90;;;;;;5036296;28;20479;-66
2023/11/14 09:51:19;;;;;;;1.30;0.57;;;9.50;99.90;;;;;;5038333;28;20497;-66
2023/11/14 09:53:52;;;;;;;1.83;0.38;;;9.60;99.90;;;;;;5039710;28;20033;-66
2023/11/14 09:56:20;;;;;;;4.68;2.05;;;9.60;99.90;;;;;;5037092;28;20399;-66
2023/11/14 09:58:53;;;;;;;3.27;0.87;;;9.70;99.90;;;;;;5040283;28;20494;-66
2023/11/14 10:01:24;;;;;;;1.10;0.40;;;9.70;99.90;;;;;;5038025;28;20056;-66
2023/11/14 10:03:56;;;;;;;2.63;0.57;;;9.80;99.90;;;;;;5037580;28;20129;-66
2023/11/14 10:06:28;;;;;;;2.83;1.02;;;9.80;99.90;;;;;;5035950;28;20124;-66
2023/11/14 10:09:03;;;;;;;2.80;0.70;;;9.80;99.90;;;;;;5038100;28;20057;-66
2023/11/14 10:11:45;;;;;;;1.80;0.50;;;9.80;99.90;;;;;;5035163;28;20038;-66
2023/11/14 10:14:19;;;;;;;2.45;0.70;;;9.80;99.90;;;;;;5036730;28;20591;-66
2023/11/14 10:16:57;;;;;;;2.35;1.40;;;9.80;99.90;;;;;;5038022;28;20041;-66
2023/11/14 10:19:29;;;;;;;1.55;0.68;;;9.80;99.90;;;;;;5039229;28;20041;-66
2023/11/14 10:22:03;;;;;;;2.70;0.60;;;9.80;99.90;;;;;;5037146;28;20493;-66
2023/11/14 10:24:35;;;;;;;3.60;0.52;;;9.80;99.90;;;;;;5041210;28;20054;-66
2023/11/14 10:27:08;;;;;;;1.65;0.60;;;9.80;99.90;;;;;;5039681;28;20056;-66
2023/11/14 10:29:52;;;;;;;2.08;1.00;;;9.80;99.90;;;;;;5037503;28;20048;-66
2023/11/14 10:32:24;;;;;;;3.33;0.90;;;9.80;99.90;;;;;;5035367;28;20139;-66
2023/11/14 10:35:15;;;;;;;6.82;1.85;;;9.80;99.90;;;;;;5039396;28;20560;-66
2023/11/14 10:37:47;;;;;;;3.47;0.50;;;9.80;99.90;;;;;;5034523;28;20041;-66
2023/11/14 10:40:19;;;;;;;1.00;0.40;;;9.90;99.90;;;;;;5040268;28;20509;-66
2023/11/14 10:42:52;;;;;;;2.67;0.85;;;9.90;99.90;;;;;;5042336;28;20115;-66
2023/11/14 10:45:25;;;;;;;2.58;0.40;;;9.90;99.90;;;;;;5037759;28;20053;-66
2023/11/14 10:47:57;;;;;;;2.35;1.83;;;9.90;99.90;;;;;;5037271;28;20116;-66
2023/11/14 10:50:31;;;;;;;2.30;0.38;;;9.90;99.90;;;;;;5032277;28;20030;-66
2023/11/14 10:53:03;;;;;;;1.60;0.50;;;9.90;99.90;;;;;;5037992;28;20409;-66
2023/11/14 10:55:36;;;;;;;1.30;0.40;;;9.90;99.90;;;;;;5038273;28;20037;-66
2023/11/14 10:58:03;;;;;;;2.53;0.45;;;9.90;99.90;;;;;;5036664;28;20080;-66
2023/11/14 11:00:37;;;;;;;4.50;0.50;;;10.00;99.90;;;;;;5038211;28;20509;-66
2023/11/14 11:03:09;;;;;;;;;;;10.00;99.90;;;;;;5042081;28;20051;-66
2023/11/14 11:05:41;;;;;;;1.98;0.40;;;10.00;99.90;;;;;;5037834;28;20011;-66
2023/11/14 11:08:08;;;;;;;2.22;0.60;;;10.10;99.90;;;;;;5040389;28;20047;-66
2023/11/14 11:10:42;;;;;;;1.45;0.60;;;10.10;99.90;;;;;;5035202;28;20711;-66
2023/11/14 11:13:23;;;;;;;1.67;0.63;;;10.10;99.90;;;;;;5031497;28;20042;-66
2023/11/14 11:15:56;;;;;;;1.42;0.40;;;10.20;99.90;;;;;;5034323;28;20501;-66
2023/11/14 11:18:35;;;;;;;0.73;0.30;;;10.20;99.90;;;;;;5039422;28;20029;-66
2023/11/14 11:21:08;;;;;;;0.50;0.30;;;10.20;99.90;;;;;;5035569;28;20040;-66
2023/11/14 11:24:05;;;;;;;0.82;0.40;;;10.10;99.90;;;;;;5032700;28;20532;-66
2023/11/14 11:27:05;;;;;;;0.52;0.30;;;10.10;99.90;;;;;;5044568;28;20041;-65
2023/11/14 11:30:04;;;;;;;2.42;0.68;;;10.20;99.90;;;;;;5043072;28;20512;-66
2023/11/14 11:32:39;;;;;;;1.00;0.45;;;10.20;99.90;;;;;;5043052;28;20057;-66
2023/11/14 11:35:21;;;;;;;1.30;0.40;;;10.20;99.90;;;;;;5036253;28;20045;-66
2023/11/14 11:38:09;;;;;;;1.33;0.47;;;10.20;99.90;;;;;;5036650;28;20042;-66
2023/11/14 11:41:06;;;;;;;0.93;0.40;;;10.20;99.90;;;;;;5038171;28;20124;-66
2023/11/14 11:43:41;;;;;;;1.77;0.40;;;10.20;99.90;;;;;;5034944;28;20115;-66
2023/11/14 11:46:34;;;;;;;5.20;0.50;;;10.30;99.90;;;;;;5017112;28;20120;-66
2023/11/14 11:49:10;;;;;;;0.80;0.47;;;10.30;99.90;;;;;;5037615;28;20045;-66
2023/11/14 11:51:43;;;;;;;1.85;0.50;;;10.30;99.90;;;;;;5037415;28;20052;-66
2023/11/14 11:54:33;;;;;;;1.80;0.43;;;10.30;99.90;;;;;;5039939;28;20465;-66
2023/11/14 11:57:06;;;;;;;0.77;0.30;;;10.30;99.90;;;;;;5036176;28;20504;-65
2023/11/14 11:59:44;;;;;;;1.25;0.30;;;10.30;99.90;;;;;;5033171;28;20037;-65
2023/11/14 12:02:18;;;;;;;1.38;0.40;;;10.30;99.90;;;;;;5035999;28;20045;-65
2023/11/14 12:04:47;;;;;;;0.75;0.35;;;10.30;99.90;;;;;;5039190;28;20041;-65
2023/11/14 12:07:19;;;;;;;1.58;0.40;;;10.30;99.90;;;;;;5039231;28;20409;-65
2023/11/14 12:09:53;;;;;;;0.65;0.20;;;10.30;99.90;;;;;;5042788;28;20509;-65
2023/11/14 12:12:26;;;;;;;2.10;0.70;;;10.20;99.90;;;;;;5038182;28;20041;-65
2023/11/14 12:14:53;;;;;;;3.10;0.55;;;10.30;99.90;;;;;;5037813;28;20103;-65
2023/11/14 12:17:26;;;;;;;1.30;0.40;;;10.30;99.90;;;;;;5035243;28;20049;-65
2023/11/14 12:20:00;;;;;;;0.57;0.40;;;10.30;99.90;;;;;;5033011;28;20025;-65
2023/11/14 12:22:33;;;;;;;0.93;0.40;;;10.30;99.90;;;;;;5035114;28;20037;-65
2023/11/14 12:25:05;;;;;;;3.08;0.50;;;10.30;99.90;;;;;;5034700;28;20116;-66
2023/11/14 12:27:37;;;;;;;0.75;0.32;;;10.30;99.90;;;;;;5034588;28;20056;-65
2023/11/14 12:30:09;;;;;;;2.08;0.52;;;10.30;99.90;;;;;;5035243;28;20124;-65
2023/11/14 12:32:36;;;;;;;1.02;0.30;;;10.30;99.90;;;;;;5036863;28;20037;-65
2023/11/14 12:35:04;;;;;;;1.58;0.28;;;10.30;99.90;;;;;;5036635;28;20124;-65
2023/11/14 12:37:36;;;;;;;0.70;0.40;;;10.30;99.90;;;;;;5034923;28;20047;-65
2023/11/14 12:40:10;;;;;;;2.42;0.60;;;10.30;99.90;;;;;;5033224;28;20299;-65
2023/11/14 12:42:42;;;;;;;;;;;10.30;99.90;;;;;;5036512;28;20056;-65
2023/11/14 12:45:14;;;;;;;1.02;0.30;;;10.30;99.90;;;;;;5032653;28;19925;-65
2023/11/14 12:47:41;;;;;;;1.80;0.40;;;10.30;99.90;;;;;;5034538;28;20061;-65
2023/11/14 12:50:22;;;;;;;2.50;0.43;;;10.30;99.90;;;;;;5035996;28;20786;-66
2023/11/14 12:52:54;;;;;;;0.75;0.40;;;10.30;99.90;;;;;;5036064;28;20420;-66
2023/11/14 12:55:25;;;;;;;1.55;1.00;;;10.30;99.90;;;;;;5034053;28;20617;-65
2023/11/14 12:57:57;;;;;;;5.20;0.52;;;10.30;99.90;;;;;;5033995;28;20547;-65
2023/11/14 13:00:29;;;;;;;2.47;0.50;;;10.30;99.90;;;;;;5035323;28;20052;-65
2023/11/14 13:03:02;;;;;;;1.77;0.40;;;10.30;99.90;;;;;;5037437;28;20040;-65
2023/11/14 13:05:29;;;;;;;1.67;0.60;;;10.30;99.90;;;;;;5035461;28;20048;-65
2023/11/14 13:07:56;;;;;;;0.80;0.40;;;10.40;99.90;;;;;;5036532;28;20128;-66
2023/11/14 13:10:25;;;;;;;1.45;0.40;;;10.40;99.90;;;;;;5033705;28;20068;-66
2023/11/14 13:12:51;;;;;;;1.85;0.47;;;10.40;99.90;;;;;;5038520;28;20124;-66
2023/11/14 13:15:24;;;;;;;3.70;0.70;;;10.40;99.90;;;;;;5034335;28;20045;-65